createdAt,value
2022-12-08T00:01:14.498Z,-1.60
2022-12-08T00:03:41.932Z,-1.60
2022-12-08T00:07:01.264Z,-1.60
2022-12-08T00:09:38.311Z,-1.70
2022-12-08T00:12:12.265Z,-1.80
2022-12-08T00:14:49.869Z,-1.80
2022-12-08T00:17:17.370Z,-1.90
2022-12-08T00:19:44.847Z,-1.90
2022-12-08T00:22:13.119Z,-2.00
2022-12-08T00:24:41.378Z,-2.00
2022-12-08T00:27:10.272Z,-2.00
2022-12-08T00:29:37.204Z,-2.10
2022-12-08T00:32:05.044Z,-2.10
2022-12-08T00:34:32.879Z,-2.10
2022-12-08T00:37:00.009Z,-2.00
2022-12-08T00:39:26.870Z,-2.10
2022-12-08T00:42:12.080Z,-2.10
2022-12-08T00:44:43.479Z,-2.20
2022-12-08T00:47:10.789Z,-2.20
2022-12-08T00:49:37.702Z,-2.30
2022-12-08T00:52:04.798Z,-2.30
2022-12-08T00:54:31.770Z,-2.40
2022-12-08T00:56:58.857Z,-2.50
2022-12-08T00:59:25.709Z,-2.50
2022-12-08T01:01:52.663Z,-2.50
2022-12-08T01:04:20.545Z,-2.50
2022-12-08T01:06:48.239Z,-2.50
2022-12-08T01:09:16.585Z,-2.50
2022-12-08T01:11:44.687Z,-2.50
2022-12-08T01:14:12.523Z,-2.50
2022-12-08T01:16:41.674Z,-2.50
2022-12-08T01:19:12.194Z,-2.50
2022-12-08T01:21:40.240Z,-2.50
2022-12-08T01:24:10.029Z,-2.60
2022-12-08T01:26:36.875Z,-2.60
2022-12-08T01:29:03.692Z,-2.60
2022-12-08T01:31:30.540Z,-2.70
2022-12-08T01:33:58.650Z,-2.70
2022-12-08T01:36:28.328Z,-2.70
2022-12-08T01:38:58.003Z,-2.70
2022-12-08T01:41:28.289Z,-2.70
2022-12-08T01:44:02.836Z,-2.70
2022-12-08T01:46:31.909Z,-2.80
2022-12-08T01:49:04.138Z,-2.80
2022-12-08T01:51:36.939Z,-2.80
2022-12-08T01:54:07.933Z,-2.70
2022-12-08T01:56:50.314Z,-2.70
2022-12-08T01:59:17.917Z,-2.70
2022-12-08T02:01:45.181Z,-2.60
2022-12-08T02:04:12.279Z,-2.60
2022-12-08T02:06:43.415Z,-2.60
2022-12-08T02:09:10.630Z,-2.50
2022-12-08T02:11:37.689Z,-2.40
2022-12-08T02:14:08.276Z,-2.40
2022-12-08T02:17:03.284Z,-2.40
2022-12-08T02:19:31.405Z,-2.30
2022-12-08T02:22:27.276Z,-2.30
2022-12-08T02:25:09.398Z,-2.30
2022-12-08T02:27:51.304Z,-2.30
2022-12-08T02:30:55.650Z,-2.30
2022-12-08T02:33:53.035Z,-2.30
2022-12-08T02:36:30.184Z,-2.30
2022-12-08T02:39:15.243Z,-2.30
2022-12-08T02:41:52.441Z,-2.30
2022-12-08T02:45:04.079Z,-2.30
2022-12-08T02:47:32.641Z,-2.30
2022-12-08T02:49:59.877Z,-2.30
2022-12-08T02:52:26.879Z,-2.30
2022-12-08T02:54:55.369Z,-2.30
2022-12-08T02:57:43.841Z,-2.30
2022-12-08T03:00:18.666Z,-2.40
2022-12-08T03:02:56.453Z,-2.40
2022-12-08T03:05:44.930Z,-2.40
2022-12-08T03:08:23.996Z,-2.40
2022-12-08T03:11:40.825Z,-2.50
2022-12-08T03:14:11.437Z,-2.40
2022-12-08T03:16:40.530Z,-2.40
2022-12-08T03:19:25.569Z,-2.40
2022-12-08T03:22:02.724Z,-2.40
2022-12-08T03:24:39.112Z,-2.40
2022-12-08T03:27:21.225Z,-2.30
2022-12-08T03:29:52.041Z,-2.30
2022-12-08T03:32:47.677Z,-2.30
2022-12-08T03:35:19.233Z,-2.30
2022-12-08T03:37:46.136Z,-2.30
2022-12-08T03:40:16.727Z,-2.30
2022-12-08T03:42:43.817Z,-2.30
2022-12-08T03:45:11.215Z,-2.30
2022-12-08T03:47:38.475Z,-2.30
2022-12-08T03:50:06.484Z,-2.30
2022-12-08T03:52:33.832Z,-2.30
2022-12-08T03:55:00.711Z,-2.40
2022-12-08T03:57:27.733Z,-2.40
2022-12-08T03:59:54.609Z,-2.40
2022-12-08T04:02:21.687Z,-2.40
2022-12-08T04:04:49.032Z,-2.40
2022-12-08T04:07:16.020Z,-2.40
2022-12-08T04:09:43.096Z,-2.40
2022-12-08T04:12:10.010Z,-2.40
2022-12-08T04:14:36.930Z,-2.40
2022-12-08T04:17:04.017Z,-2.40
2022-12-08T04:19:30.893Z,-2.40
2022-12-08T04:21:57.827Z,-2.50
2022-12-08T04:24:24.741Z,-2.50
2022-12-08T04:26:51.692Z,-2.50
2022-12-08T04:29:18.702Z,-2.50
2022-12-08T04:31:45.689Z,-2.60
2022-12-08T04:34:12.682Z,-2.60
2022-12-08T04:36:39.601Z,-2.70
2022-12-08T04:39:06.888Z,-2.70
2022-12-08T04:41:33.926Z,-2.70
2022-12-08T04:44:00.833Z,-2.70
2022-12-08T04:46:27.978Z,-2.80
2022-12-08T04:48:55.018Z,-2.90
2022-12-08T04:51:21.963Z,-3.00
2022-12-08T04:53:49.004Z,-3.00
2022-12-08T04:56:18.099Z,-3.00
2022-12-08T04:58:45.601Z,-3.00
2022-12-08T05:01:13.419Z,-3.00
2022-12-08T05:03:40.340Z,-3.00
2022-12-08T05:06:07.542Z,-3.00
2022-12-08T05:08:34.905Z,-3.00
2022-12-08T05:11:06.705Z,-2.90
2022-12-08T05:13:33.737Z,-3.00
2022-12-08T05:16:09.744Z,-3.00
2022-12-08T05:18:37.939Z,-3.10
2022-12-08T05:21:05.817Z,-3.10
2022-12-08T05:23:32.865Z,-3.10
2022-12-08T05:25:59.734Z,-3.10
2022-12-08T05:28:43.535Z,-3.10
2022-12-08T05:31:15.111Z,-3.10
2022-12-08T05:33:42.520Z,-3.10
2022-12-08T05:36:11.701Z,-3.10
2022-12-08T05:38:39.256Z,-3.10
2022-12-08T05:41:07.058Z,-3.20
2022-12-08T05:43:34.267Z,-3.20
2022-12-08T05:46:01.738Z,-3.20
2022-12-08T05:48:28.757Z,-3.20
2022-12-08T05:50:55.656Z,-3.20
2022-12-08T05:53:22.729Z,-3.20
2022-12-08T05:55:49.715Z,-3.20
2022-12-08T05:58:19.690Z,-3.30
2022-12-08T06:00:48.193Z,-3.30
2022-12-08T06:03:17.480Z,-3.30
2022-12-08T06:05:47.995Z,-3.30
2022-12-08T06:08:15.294Z,-3.30
2022-12-08T06:10:43.937Z,-3.30
2022-12-08T06:13:11.026Z,-3.30
2022-12-08T06:15:39.022Z,-3.30
2022-12-08T06:18:07.736Z,-3.20
2022-12-08T06:20:35.332Z,-3.30
2022-12-08T06:23:03.546Z,-3.10
2022-12-08T06:25:30.767Z,-3.00
2022-12-08T06:27:57.654Z,-3.00
2022-12-08T06:30:24.585Z,-3.00
2022-12-08T06:32:51.672Z,-3.00
2022-12-08T06:35:18.589Z,-3.00
2022-12-08T06:37:45.648Z,-3.10
2022-12-08T06:40:12.921Z,-3.10
2022-12-08T06:42:46.709Z,-3.20
2022-12-08T06:45:15.721Z,-3.20
2022-12-08T06:47:42.629Z,-3.20
2022-12-08T06:50:11.000Z,-3.20
2022-12-08T06:52:46.766Z,-3.20
2022-12-08T06:55:42.723Z,-3.10
2022-12-08T06:58:07.344Z,-3.20
2022-12-08T07:00:34.487Z,-3.10
2022-12-08T07:03:01.392Z,-3.10
2022-12-08T07:05:28.279Z,-3.10
2022-12-08T07:07:55.282Z,-2.90
2022-12-08T07:10:22.191Z,-2.90
2022-12-08T07:12:49.343Z,-3.00
2022-12-08T07:15:16.595Z,-3.00
2022-12-08T07:17:43.559Z,-3.10
2022-12-08T07:20:11.037Z,-3.10
2022-12-08T07:22:37.977Z,-3.10
2022-12-08T07:25:05.311Z,-3.10
2022-12-08T07:27:32.439Z,-3.20
2022-12-08T07:29:59.474Z,-3.20
2022-12-08T07:32:26.505Z,-3.20
2022-12-08T07:34:53.401Z,-3.20
2022-12-08T07:37:20.381Z,-3.20
2022-12-08T07:39:47.486Z,-3.20
2022-12-08T07:42:14.530Z,-3.20
2022-12-08T07:44:41.520Z,-3.20
2022-12-08T07:47:08.549Z,-3.20
2022-12-08T07:49:35.669Z,-3.10
2022-12-08T07:52:02.566Z,-3.10
2022-12-08T07:54:29.662Z,-3.00
2022-12-08T07:56:58.022Z,-3.00
2022-12-08T07:59:25.071Z,-3.00
2022-12-08T08:02:06.560Z,-2.90
2022-12-08T08:04:39.032Z,-2.90
2022-12-08T08:07:06.043Z,-2.90
2022-12-08T08:09:34.029Z,-2.90
2022-12-08T08:12:29.708Z,-2.80
2022-12-08T08:14:47.976Z,-2.80
2022-12-08T08:17:15.357Z,-2.80
2022-12-08T08:19:42.560Z,-2.70
2022-12-08T08:22:09.494Z,-2.60
2022-12-08T08:24:41.592Z,-2.50
2022-12-08T08:27:11.735Z,-2.40
2022-12-08T08:29:38.660Z,-2.30
2022-12-08T08:32:06.187Z,-2.30
2022-12-08T08:34:33.140Z,-2.20
2022-12-08T08:37:00.605Z,-2.20
2022-12-08T08:39:27.806Z,-2.10
2022-12-08T08:41:54.787Z,-2.00
2022-12-08T08:44:21.733Z,-1.90
2022-12-08T08:46:48.752Z,-1.90
2022-12-08T08:49:15.752Z,-1.80
2022-12-08T08:51:43.783Z,-1.80
2022-12-08T08:54:10.992Z,-1.70
2022-12-08T08:56:38.082Z,-1.70
2022-12-08T08:59:05.093Z,-1.60
2022-12-08T09:01:32.342Z,-1.60
2022-12-08T09:03:59.397Z,-1.60
2022-12-08T09:06:28.415Z,-1.50
2022-12-08T09:08:55.790Z,-1.40
2022-12-08T09:11:23.805Z,-1.40
2022-12-08T09:13:52.379Z,-1.40
2022-12-08T09:16:19.983Z,-1.30
2022-12-08T09:18:48.327Z,-1.20
2022-12-08T09:21:22.385Z,-1.20
2022-12-08T09:23:50.967Z,-1.10
2022-12-08T09:26:18.052Z,-1.10
2022-12-08T09:28:46.744Z,-1.00
2022-12-08T09:31:14.774Z,-1.00
2022-12-08T09:33:42.221Z,-0.80
2022-12-08T09:36:09.762Z,-0.90
2022-12-08T09:38:38.118Z,-0.90
2022-12-08T09:41:20.602Z,-0.80
2022-12-08T09:44:08.184Z,-0.80
2022-12-08T09:46:36.975Z,-0.70
2022-12-08T09:49:10.479Z,-0.70
2022-12-08T09:51:41.753Z,-0.70
2022-12-08T09:54:31.752Z,-0.60
2022-12-08T09:57:03.485Z,-0.50
2022-12-08T09:59:35.145Z,-0.50
2022-12-08T10:02:03.611Z,-0.40
2022-12-08T10:04:41.148Z,-0.40
2022-12-08T10:07:39.442Z,-0.30
2022-12-08T10:10:09.321Z,-0.20
2022-12-08T10:12:48.535Z,-0.20
2022-12-08T10:15:27.369Z,-0.10
2022-12-08T10:17:57.537Z,0.00
2022-12-08T10:20:28.575Z,0.10
2022-12-08T10:23:13.789Z,0.20
2022-12-08T10:25:55.582Z,0.30
2022-12-08T10:28:22.575Z,0.30
2022-12-08T10:30:49.529Z,0.40
2022-12-08T10:33:18.595Z,0.50
2022-12-08T10:35:58.514Z,0.60
2022-12-08T10:38:35.776Z,0.70
2022-12-08T10:41:12.025Z,0.70
2022-12-08T10:43:48.922Z,0.70
2022-12-08T10:46:23.201Z,0.80
2022-12-08T10:48:52.109Z,0.80
2022-12-08T10:51:45.660Z,0.80
2022-12-08T10:54:36.924Z,0.80
2022-12-08T10:57:04.006Z,0.80
2022-12-08T10:59:33.526Z,0.70
2022-12-08T11:02:01.029Z,0.70
2022-12-08T11:04:38.430Z,0.70
2022-12-08T11:07:08.827Z,0.80
2022-12-08T11:09:37.782Z,0.80
2022-12-08T11:12:09.690Z,0.90
2022-12-08T11:14:42.945Z,0.90
2022-12-08T11:17:15.063Z,1.00
2022-12-08T11:19:54.725Z,1.10
2022-12-08T11:22:36.048Z,1.10
2022-12-08T11:25:12.276Z,1.10
2022-12-08T11:27:45.804Z,1.00
2022-12-08T11:30:19.655Z,1.00
2022-12-08T11:32:53.054Z,1.00
2022-12-08T11:35:26.615Z,1.10
2022-12-08T11:38:08.080Z,1.20
2022-12-08T11:40:45.406Z,1.30
2022-12-08T11:43:33.300Z,1.30
2022-12-08T11:46:03.802Z,1.40
2022-12-08T11:48:50.381Z,1.40
2022-12-08T11:51:52.422Z,1.50
2022-12-08T11:54:44.820Z,1.40
2022-12-08T11:57:16.679Z,1.40
2022-12-08T11:59:49.632Z,1.40
2022-12-08T12:02:29.073Z,1.40
2022-12-08T12:04:58.441Z,1.30
2022-12-08T12:08:03.144Z,1.20
2022-12-08T12:10:39.307Z,1.20
2022-12-08T12:13:24.892Z,1.10
2022-12-08T12:16:16.984Z,1.10
2022-12-08T12:18:47.367Z,1.10
2022-12-08T12:21:20.283Z,1.10
2022-12-08T12:23:56.916Z,1.10
2022-12-08T12:26:35.290Z,1.10
2022-12-08T12:29:03.892Z,1.10
2022-12-08T12:31:38.503Z,1.10
2022-12-08T12:34:20.381Z,1.00
2022-12-08T12:36:51.293Z,1.00
2022-12-08T12:39:23.397Z,1.00
2022-12-08T12:41:58.289Z,0.90
2022-12-08T12:44:28.410Z,0.80
2022-12-08T12:46:57.056Z,0.10
2022-12-08T12:49:39.617Z,0.90
2022-12-08T12:52:15.859Z,0.80
2022-12-08T12:55:02.698Z,0.80
2022-12-08T12:57:38.608Z,0.70
2022-12-08T13:00:05.626Z,0.70
2022-12-08T13:02:44.825Z,0.70
2022-12-08T13:05:18.973Z,0.70
2022-12-08T13:07:50.207Z,0.80
2022-12-08T13:10:21.700Z,0.80
2022-12-08T13:13:12.824Z,0.80
2022-12-08T13:15:52.605Z,0.80
2022-12-08T13:18:25.535Z,0.80
2022-12-08T13:21:19.824Z,0.80
2022-12-08T13:24:14.127Z,0.70
2022-12-08T13:26:44.253Z,0.80
2022-12-08T13:29:22.109Z,0.80
2022-12-08T13:31:59.241Z,0.90
2022-12-08T13:34:41.879Z,0.90
2022-12-08T13:37:11.841Z,0.90
2022-12-08T13:40:14.165Z,0.90
2022-12-08T13:42:47.175Z,1.00
2022-12-08T13:46:04.370Z,1.40
2022-12-08T13:57:30.870Z,0.90
2022-12-08T14:00:14.592Z,0.90
2022-12-08T14:02:47.661Z,0.90
2022-12-08T14:05:29.741Z,0.90
2022-12-08T14:08:57.037Z,1.00
2022-12-08T14:11:09.730Z,1.00
2022-12-08T14:13:36.704Z,0.90
2022-12-08T14:16:03.707Z,1.00
2022-12-08T14:18:31.818Z,1.00
2022-12-08T14:21:21.350Z,1.00
2022-12-08T14:23:48.768Z,1.10
2022-12-08T14:26:15.701Z,1.10
2022-12-08T14:28:45.244Z,1.10
2022-12-08T14:31:14.599Z,1.20
2022-12-08T14:33:42.560Z,1.30
2022-12-08T14:36:12.915Z,1.30
2022-12-08T14:38:40.041Z,1.30
2022-12-08T14:41:08.979Z,1.30
2022-12-08T14:43:35.892Z,1.50
2022-12-08T14:46:19.041Z,1.40
2022-12-08T14:48:46.006Z,1.40
2022-12-08T14:51:19.191Z,1.30
2022-12-08T14:53:54.630Z,1.30
2022-12-08T14:56:42.497Z,1.30
2022-12-08T14:59:19.187Z,1.30
2022-12-08T15:01:47.353Z,1.30
2022-12-08T15:04:17.072Z,1.40
2022-12-08T15:06:53.061Z,1.40
2022-12-08T15:09:36.621Z,1.40
2022-12-08T15:12:12.837Z,1.30
2022-12-08T15:14:59.695Z,1.30
2022-12-08T15:17:45.806Z,1.30
2022-12-08T15:20:42.677Z,1.30
2022-12-08T15:23:31.313Z,1.20
2022-12-08T15:25:59.475Z,1.20
2022-12-08T15:28:30.236Z,1.20
2022-12-08T15:30:58.188Z,1.20
2022-12-08T15:33:26.321Z,1.20
2022-12-08T15:35:53.601Z,1.20
2022-12-08T15:38:27.000Z,1.20
2022-12-08T15:40:55.000Z,1.20
2022-12-08T15:43:22.948Z,1.10
2022-12-08T15:45:59.163Z,1.10
2022-12-08T15:48:29.031Z,1.10
2022-12-08T15:50:57.140Z,1.10
2022-12-08T15:53:24.162Z,1.10
2022-12-08T15:56:26.268Z,1.10
2022-12-08T15:58:53.471Z,1.10
2022-12-08T16:01:21.813Z,1.10
2022-12-08T16:09:40.605Z,1.00
2022-12-08T16:15:57.176Z,0.90
2022-12-08T16:18:29.518Z,0.90
2022-12-08T16:23:45.310Z,0.90
2022-12-08T16:27:01.110Z,0.80
2022-12-08T16:29:07.768Z,0.80
2022-12-08T16:31:35.004Z,0.80
2022-12-08T16:34:02.045Z,0.80
2022-12-08T16:36:28.997Z,0.80
2022-12-08T16:38:55.838Z,0.80
2022-12-08T16:41:41.337Z,0.80
2022-12-08T16:44:08.376Z,0.80
2022-12-08T16:46:36.125Z,2.50
2022-12-08T16:49:04.541Z,0.70
2022-12-08T16:51:31.632Z,0.70
2022-12-08T16:53:58.723Z,0.70
2022-12-08T16:56:32.560Z,0.70
2022-12-08T16:58:59.947Z,0.60
2022-12-08T17:01:26.988Z,0.60
2022-12-08T17:04:29.217Z,0.60
2022-12-08T17:06:40.992Z,0.60
2022-12-08T17:09:07.896Z,0.60
2022-12-08T17:11:40.777Z,0.60
2022-12-08T17:14:09.597Z,0.60
2022-12-08T17:16:36.800Z,0.50
2022-12-08T17:19:03.994Z,0.50
2022-12-08T17:21:30.907Z,0.40
2022-12-08T17:23:57.929Z,0.30
2022-12-08T17:26:24.911Z,0.30
2022-12-08T17:29:00.868Z,0.30
2022-12-08T17:31:30.597Z,0.20
2022-12-08T17:34:02.937Z,0.20
2022-12-08T17:36:29.995Z,0.10
2022-12-08T17:38:59.679Z,0.10
2022-12-08T17:41:26.934Z,0.00
2022-12-08T17:43:53.985Z,0.00
2022-12-08T17:46:21.659Z,0.00
2022-12-08T17:48:48.738Z,0.00
2022-12-08T17:51:16.620Z,0.00
2022-12-08T17:53:43.960Z,-0.10
2022-12-08T17:56:19.882Z,-0.10
2022-12-08T17:58:52.579Z,-0.20
2022-12-08T18:01:21.532Z,-0.20
2022-12-08T18:03:48.698Z,-0.20
2022-12-08T18:06:17.701Z,-0.20
2022-12-08T18:08:45.154Z,-0.10
2022-12-08T18:11:15.426Z,-0.10
2022-12-08T18:13:42.814Z,-0.10
2022-12-08T18:16:10.201Z,-0.20
2022-12-08T18:18:37.213Z,-0.20
2022-12-08T18:21:04.381Z,-0.20
2022-12-08T18:23:31.365Z,-0.20
2022-12-08T18:25:58.437Z,-0.30
2022-12-08T18:28:25.576Z,-0.30
2022-12-08T18:30:52.433Z,-0.30
2022-12-08T18:33:19.567Z,-0.30
2022-12-08T18:35:46.819Z,-0.40
2022-12-08T18:38:14.407Z,-0.40
2022-12-08T18:40:41.330Z,-0.40
2022-12-08T18:43:08.292Z,-0.50
2022-12-08T18:45:38.799Z,-0.50
2022-12-08T18:48:06.747Z,-0.50
2022-12-08T18:50:33.772Z,-0.50
2022-12-08T18:53:00.731Z,-0.60
2022-12-08T18:55:27.640Z,-0.70
2022-12-08T18:57:54.776Z,-0.70
2022-12-08T19:00:21.766Z,-0.80
2022-12-08T19:02:48.980Z,-0.80
2022-12-08T19:05:16.217Z,-0.80
2022-12-08T19:07:43.741Z,-0.80
2022-12-08T19:10:11.651Z,-0.90
2022-12-08T19:12:38.731Z,-0.90
2022-12-08T19:15:06.270Z,-1.00
2022-12-08T19:17:33.501Z,-1.00
2022-12-08T19:20:00.617Z,-1.00
2022-12-08T19:22:27.670Z,-1.10
2022-12-08T19:24:54.630Z,-1.10
2022-12-08T19:27:21.672Z,-1.20
2022-12-08T19:29:48.737Z,-1.20
2022-12-08T19:32:15.787Z,-1.20
2022-12-08T19:34:42.854Z,-1.30
2022-12-08T19:37:12.564Z,-1.30
2022-12-08T19:39:58.739Z,-1.30
2022-12-08T19:42:44.097Z,-1.40
2022-12-08T19:45:29.486Z,-1.40
2022-12-08T19:47:56.629Z,-1.50
2022-12-08T19:50:39.044Z,-1.50
2022-12-08T19:53:12.284Z,-1.50
2022-12-08T19:55:39.888Z,-1.50
2022-12-08T19:58:08.074Z,-1.60
2022-12-08T20:00:36.630Z,-1.60
2022-12-08T20:03:04.861Z,-1.60
2022-12-08T20:05:34.408Z,-1.60
2022-12-08T20:08:01.757Z,-1.60
2022-12-08T20:10:34.711Z,-1.70
2022-12-08T20:13:20.658Z,-1.70
2022-12-08T20:15:47.993Z,-1.80
2022-12-08T20:18:16.571Z,-1.80
2022-12-08T20:20:45.079Z,-1.80
2022-12-08T20:23:12.658Z,-1.80
2022-12-08T20:25:42.056Z,-1.80
2022-12-08T20:28:09.098Z,-1.90
2022-12-08T20:30:38.807Z,-1.90
2022-12-08T20:33:05.757Z,-2.00
2022-12-08T20:35:32.696Z,-2.00
2022-12-08T20:37:59.730Z,-2.10
2022-12-08T20:40:26.946Z,-2.10
2022-12-08T20:42:53.996Z,-2.10
2022-12-08T20:45:21.176Z,-2.10
2022-12-08T20:47:48.262Z,-2.20
2022-12-08T20:50:15.225Z,-2.20
2022-12-08T20:52:42.458Z,-2.20
2022-12-08T20:55:09.940Z,-2.20
2022-12-08T20:57:37.133Z,-2.20
2022-12-08T21:00:06.274Z,-2.30
2022-12-08T21:02:33.747Z,-2.30
2022-12-08T21:05:00.921Z,-2.40
2022-12-08T21:07:28.219Z,-2.40
2022-12-08T21:09:55.693Z,-2.40
2022-12-08T21:12:22.793Z,-2.40
2022-12-08T21:14:49.960Z,-2.50
2022-12-08T21:17:16.990Z,-2.50
2022-12-08T21:19:43.995Z,-2.50
2022-12-08T21:22:11.674Z,-2.50
2022-12-08T21:24:38.675Z,-2.50
2022-12-08T21:27:05.839Z,-2.60
2022-12-08T21:29:33.079Z,-2.50
2022-12-08T21:32:00.901Z,-2.60
2022-12-08T21:34:31.758Z,-2.60
2022-12-08T21:36:59.143Z,-2.60
2022-12-08T21:39:26.759Z,-2.60
2022-12-08T21:42:13.048Z,-2.60
2022-12-08T21:44:40.483Z,-2.60
2022-12-08T21:47:07.528Z,-2.70
2022-12-08T21:49:34.675Z,-2.70
2022-12-08T21:52:01.911Z,-2.70
2022-12-08T21:54:28.990Z,-2.70
2022-12-08T21:56:56.168Z,-2.80
2022-12-08T21:59:23.081Z,-2.70
2022-12-08T22:01:50.319Z,-2.70
2022-12-08T22:04:19.062Z,-2.70
2022-12-08T22:06:46.322Z,-2.70
2022-12-08T22:09:15.313Z,-2.70
2022-12-08T22:11:43.576Z,-2.70
2022-12-08T22:14:14.369Z,-2.70
2022-12-08T22:16:42.770Z,-2.70
2022-12-08T22:19:10.149Z,-2.70
2022-12-08T22:21:38.449Z,-2.70
2022-12-08T22:24:06.385Z,-2.70
2022-12-08T22:26:34.074Z,-2.70
2022-12-08T22:29:01.419Z,-2.70
2022-12-08T22:31:28.740Z,-2.70
2022-12-08T22:33:56.016Z,-2.70
2022-12-08T22:36:25.404Z,-2.70
2022-12-08T22:38:53.951Z,-2.70
2022-12-08T22:41:22.286Z,-2.70
2022-12-08T22:43:50.492Z,-2.70
2022-12-08T22:46:20.890Z,-2.80
2022-12-08T22:48:49.092Z,-2.80
2022-12-08T22:51:17.017Z,-2.80
2022-12-08T22:53:44.510Z,-2.70
2022-12-08T22:56:13.347Z,-2.70
2022-12-08T22:58:41.425Z,-2.70
2022-12-08T23:01:09.010Z,-2.70
2022-12-08T23:03:36.217Z,-2.60
2022-12-08T23:06:12.985Z,-2.60
2022-12-08T23:08:40.217Z,-2.60
2022-12-08T23:11:07.368Z,-2.60
2022-12-08T23:13:34.597Z,-2.60
2022-12-08T23:16:01.828Z,-2.60
2022-12-08T23:18:32.892Z,-2.50
2022-12-08T23:21:05.139Z,-2.50
2022-12-08T23:23:32.243Z,-2.50
2022-12-08T23:25:59.260Z,-2.50
2022-12-08T23:28:26.671Z,-2.40
2022-12-08T23:30:53.994Z,-2.50
2022-12-08T23:33:21.067Z,-2.50
2022-12-08T23:35:57.635Z,-2.40
2022-12-08T23:38:25.333Z,-2.50
2022-12-08T23:40:53.221Z,-2.50
2022-12-08T23:43:20.542Z,-2.60
2022-12-08T23:45:48.504Z,-2.60
2022-12-08T23:48:15.917Z,-2.60
2022-12-08T23:50:42.838Z,-2.60
2022-12-08T23:53:10.030Z,-2.60
2022-12-08T23:55:37.126Z,-2.70
2022-12-08T23:58:04.242Z,-2.80
